Time;durP1;ratioP1;P1;durP2;ratioP2;P2;SDS_P1;SDS_P2;PMS_P1;PMS_P2;Temp;Humidity;BMP_temperature;BMP_pressure;BME280_temperature;BME280_humidity;BME280_pressure;Samples;Min_cycle;Max_cycle;Signal;HPM_P1;HPM_P2
2023/07/03 00:01:19;;;;;;;;;;;;;;;15.93;55.61;100454.44;4188348;28;20028;-67
2023/07/03 00:03:21;;;;;;;;;;;;;;;15.92;55.41;100450.03;4187404;28;20570;-67
2023/07/03 00:05:23;;;;;;;;;;;;;;;15.88;55.16;100455.09;4185996;28;20036;-67
2023/07/03 00:07:25;;;;;;;;;;;;;;;15.85;55.45;100453.63;4187636;28;20023;-67
2023/07/03 00:09:27;;;;;;;;;;;;;;;15.87;55.01;100458.03;4186890;28;20350;-67
2023/07/03 00:11:29;;;;;;;;;;;;;;;15.81;55.18;100449.66;4187272;28;20023;-67
2023/07/03 00:13:32;;;;;;;;;;;;;;;15.79;55.46;100450.94;4188064;28;20020;-66
2023/07/03 00:15:34;;;;;;;;;;;;;;;15.77;55.33;100453.06;4186775;28;20008;-66
2023/07/03 00:17:37;;;;;;;;;;;;;;;15.74;55.88;100446.13;4187306;28;20386;-66
2023/07/03 00:19:39;;;;;;;;;;;;;;;15.74;55.61;100445.31;4169599;28;20016;-66
2023/07/03 00:21:43;;;;;;;;;;;;;;;15.69;55.94;100437.78;4187470;28;20027;-67
2023/07/03 00:23:45;;;;;;;;;;;;;;;15.67;55.76;100446.16;4187212;28;20011;-67
2023/07/03 00:25:48;;;;;;;;;;;;;;;15.66;55.72;100430.06;4186551;28;20012;-67
2023/07/03 00:27:50;;;;;;;;;;;;;;;15.68;55.91;100441.56;4187071;28;20032;-66
2023/07/03 00:29:53;;;;;;;;;;;;;;;15.68;55.76;100438.81;4186451;28;20495;-66
2023/07/03 00:31:55;;;;;;;;;;;;;;;15.68;56.27;100444.28;4148546;28;20016;-66
2023/07/03 00:33:58;;;;;;;;;;;;;;;15.64;56.42;100435.72;4186780;28;20023;-65
2023/07/03 00:36:00;;;;;;;;;;;;;;;15.62;56.51;100443.25;4186597;28;20405;-66
2023/07/03 00:38:01;;;;;;;;;;;;;;;15.61;57.08;100440.75;4187305;28;20015;-66
2023/07/03 00:40:06;;;;;;;;;;;;;;;15.59;56.96;100434.69;4169075;28;20446;-66
2023/07/03 00:42:08;;;;;;;;;;;;;;;15.59;57.51;100438.25;4186273;28;20026;-66
2023/07/03 00:44:11;;;;;;;;;;;;;;;15.59;57.48;100432.78;4168244;28;19991;-67
2023/07/03 00:46:14;;;;;;;;;;;;;;;15.56;58.71;100437.84;4183544;28;20007;-66
2023/07/03 00:48:16;;;;;;;;;;;;;;;15.50;58.29;100429.50;4185532;28;20469;-66
2023/07/03 00:50:19;;;;;;;;;;;;;;;15.47;58.35;100427.22;4185175;28;20011;-66
2023/07/03 00:52:21;;;;;;;;;;;;;;;15.45;58.38;100423.88;4185319;28;20007;-66
2023/07/03 00:54:23;;;;;;;;;;;;;;;15.44;58.29;100418.66;4185824;28;20020;-66
2023/07/03 00:56:25;;;;;;;;;;;;;;;15.46;58.70;100420.09;4187070;28;20060;-66
2023/07/03 00:58:28;;;;;;;;;;;;;;;15.43;58.46;100422.44;4187192;28;19967;-67
2023/07/03 01:00:35;;;;;;;;;;;;;;;15.40;58.41;100418.25;4185544;28;19995;-65
2023/07/03 01:02:39;;;;;;;;;;;;;;;15.38;58.71;100416.81;4152248;28;20027;-66
2023/07/03 01:04:42;;;;;;;;;;;;;;;15.34;58.82;100418.28;4184698;28;20412;-67
2023/07/03 01:06:46;;;;;;;;;;;;;;;15.26;59.39;100422.06;4168101;28;20028;-66
2023/07/03 01:08:48;;;;;;;;;;;;;;;15.20;59.66;100420.22;4152429;28;20024;-66
2023/07/03 01:10:50;;;;;;;;;;;;;;;15.10;59.58;100429.66;4185384;28;20023;-66
2023/07/03 01:12:54;;;;;;;;;;;;;;;15.07;60.17;100421.09;4185479;28;20022;-66
2023/07/03 01:14:57;;;;;;;;;;;;;;;15.06;60.00;100431.16;4186385;28;20015;-66
2023/07/03 01:17:00;;;;;;;;;;;;;;;15.03;60.38;100422.56;4186649;28;20014;-66
2023/07/03 01:19:03;;;;;;;;;;;;;;;15.03;60.58;100415.28;4185991;28;20016;-67
2023/07/03 01:21:06;;;;;;;;;;;;;;;15.06;61.05;100420.28;4186830;28;20027;-66
2023/07/03 01:23:09;;;;;;;;;;;;;;;15.09;60.73;100419.00;4185995;28;20039;-66
2023/07/03 01:25:14;;;;;;;;;;;;;;;15.13;60.53;100417.53;4186151;28;20507;-65
2023/07/03 01:27:17;;;;;;;;;;;;;;;15.14;60.93;100409.16;4184401;28;20458;-67
2023/07/03 01:29:19;;;;;;;;;;;;;;;15.17;60.59;100416.03;4186581;28;20449;-66
2023/07/03 01:31:21;;;;;;;;;;;;;;;15.18;61.16;100409.53;4185397;28;20007;-66
2023/07/03 01:33:25;;;;;;;;;;;;;;;15.13;61.49;100403.94;4187097;28;20346;-66
2023/07/03 01:35:27;;;;;;;;;;;;;;;15.04;61.71;100411.47;4183289;28;20015;-66
2023/07/03 01:37:29;;;;;;;;;;;;;;;14.96;61.81;100409.84;4185978;28;20418;-66
2023/07/03 01:39:31;;;;;;;;;;;;;;;14.92;62.05;100405.88;4185777;28;20040;-66
2023/07/03 01:41:34;;;;;;;;;;;;;;;14.89;62.20;100405.47;4185500;28;20031;-66
2023/07/03 01:43:36;;;;;;;;;;;;;;;14.87;62.62;100410.28;4186329;28;20019;-67
2023/07/03 01:45:40;;;;;;;;;;;;;;;14.83;62.65;100400.88;4186134;28;20698;-67
2023/07/03 01:47:42;;;;;;;;;;;;;;;14.80;62.87;100402.16;4185621;28;20023;-67
2023/07/03 01:49:44;;;;;;;;;;;;;;;14.78;62.82;100407.81;4185606;28;20031;-67
2023/07/03 01:51:49;;;;;;;;;;;;;;;14.81;63.00;100398.41;4186675;28;20011;-66
2023/07/03 01:53:51;;;;;;;;;;;;;;;14.84;62.80;100402.56;4168317;28;20391;-66
2023/07/03 01:55:55;;;;;;;;;;;;;;;14.87;63.12;100404.84;4168961;28;20019;-67
2023/07/03 01:58:00;;;;;;;;;;;;;;;14.90;63.06;100402.53;4185835;28;20023;-67
2023/07/03 02:00:04;;;;;;;;;;;;;;;14.92;62.92;100396.88;4186038;28;20453;-67
2023/07/03 02:02:16;;;;;;;;;;;;;;;14.93;62.91;100393.94;4186272;28;20019;-67
2023/07/03 02:04:20;;;;;;;;;;;;;;;14.97;62.69;100399.81;4185518;28;20493;-65
2023/07/03 02:06:23;;;;;;;;;;;;;;;14.98;62.88;100401.47;4186494;28;20051;-66
2023/07/03 02:08:25;;;;;;;;;;;;;;;14.95;63.19;100401.88;4186276;28;20023;-66
2023/07/03 02:10:28;;;;;;;;;;;;;;;14.92;63.13;100402.31;4167344;28;20012;-66
2023/07/03 02:12:30;;;;;;;;;;;;;;;14.89;63.45;100402.75;4168301;28;20033;-66
2023/07/03 02:14:34;;;;;;;;;;;;;;;14.84;63.53;100400.66;4168036;28;20561;-67
2023/07/03 02:16:38;;;;;;;;;;;;;;;14.85;63.35;100399.63;4155125;28;20032;-67
2023/07/03 02:18:40;;;;;;;;;;;;;;;14.88;63.67;100401.91;4189205;28;20020;-67
2023/07/03 02:20:42;;;;;;;;;;;;;;;14.89;63.43;100395.44;4188697;28;20024;-67
2023/07/03 02:22:44;;;;;;;;;;;;;;;14.91;63.45;100401.50;4171259;28;20036;-66
2023/07/03 02:24:46;;;;;;;;;;;;;;;14.90;63.45;100398.97;4170300;28;20012;-66
2023/07/03 02:26:48;;;;;;;;;;;;;;;14.95;63.53;100405.47;4171622;28;20012;-67
2023/07/03 02:28:50;;;;;;;;;;;;;;;14.96;63.39;100401.66;4189449;28;20386;-66
2023/07/03 02:30:54;;;;;;;;;;;;;;;15.01;63.31;100405.66;4189368;28;20722;-67
2023/07/03 02:32:56;;;;;;;;;;;;;;;15.03;63.33;100404.38;4155953;28;20371;-65
2023/07/03 02:34:59;;;;;;;;;;;;;;;15.05;63.69;100396.03;4155061;28;20024;-67
2023/07/03 02:37:01;;;;;;;;;;;;;;;15.07;63.59;100402.88;4190622;28;20028;-66
2023/07/03 02:39:04;;;;;;;;;;;;;;;15.08;63.68;100401.03;4172055;28;20004;-68
2023/07/03 02:41:07;;;;;;;;;;;;;;;15.09;63.90;100405.41;4189972;28;19979;-66
2023/07/03 02:43:09;;;;;;;;;;;;;;;15.11;63.86;100401.44;4190394;28;20807;-66
2023/07/03 02:45:13;;;;;;;;;;;;;;;15.14;63.88;100401.00;4190074;28;20050;-67
2023/07/03 02:47:18;;;;;;;;;;;;;;;15.17;63.41;100390.72;4171462;28;20407;-67
2023/07/03 02:49:20;;;;;;;;;;;;;;;15.18;63.85;100386.97;4155329;28;20435;-66
2023/07/03 02:51:22;;;;;;;;;;;;;;;15.20;63.76;100379.41;4150724;28;20012;-68
2023/07/03 02:53:27;;;;;;;;;;;;;;;15.21;63.80;100381.09;4154924;28;20024;-66
2023/07/03 02:55:36;;;;;;;;;;;;;;;15.24;63.82;100386.09;4170257;28;20047;-67
2023/07/03 02:57:39;;;;;;;;;;;;;;;15.24;63.75;100378.75;4187816;28;20027;-66
2023/07/03 02:59:44;;;;;;;;;;;;;;;15.26;63.80;100378.53;4170168;28;20015;-66
2023/07/03 03:01:50;;;;;;;;;;;;;;;15.25;63.89;100375.00;4188108;28;20071;-67
2023/07/03 03:03:55;;;;;;;;;;;;;;;15.27;64.15;100378.34;4187578;28;20016;-67
2023/07/03 03:05:57;;;;;;;;;;;;;;;15.26;64.08;100378.53;4188467;28;20031;-68
2023/07/03 03:08:00;;;;;;;;;;;;;;;15.22;64.14;100375.44;4171255;28;20019;-66
2023/07/03 03:10:02;;;;;;;;;;;;;;;15.22;64.00;100380.03;4188001;28;20015;-66
2023/07/03 03:12:04;;;;;;;;;;;;;;;15.22;64.16;100377.31;4170727;28;20664;-67
2023/07/03 03:14:07;;;;;;;;;;;;;;;15.23;64.08;100373.53;4170106;28;20065;-67
2023/07/03 03:16:09;;;;;;;;;;;;;;;15.24;64.23;100369.78;4169717;28;20032;-66
2023/07/03 03:18:12;;;;;;;;;;;;;;;15.25;64.50;100380.44;4187919;28;20019;-67
2023/07/03 03:20:15;;;;;;;;;;;;;;;15.27;64.09;100383.78;4163079;28;20036;-66
2023/07/03 03:22:17;;;;;;;;;;;;;;;15.28;64.30;100380.00;4186986;28;20003;-66
2023/07/03 03:24:20;;;;;;;;;;;;;;;15.30;64.13;100379.78;4170192;28;20005;-67
2023/07/03 03:26:22;;;;;;;;;;;;;;;15.31;64.53;100381.44;4168939;28;20422;-67
2023/07/03 03:28:24;;;;;;;;;;;;;;;15.32;64.70;100381.22;4189448;28;20591;-68
2023/07/03 03:30:26;;;;;;;;;;;;;;;15.33;64.87;100382.09;4150950;28;20023;-66
2023/07/03 03:32:28;;;;;;;;;;;;;;;15.35;64.86;100381.88;4188691;28;20015;-66
2023/07/03 03:34:32;;;;;;;;;;;;;;;15.36;64.99;100381.66;4187407;28;19975;-67
2023/07/03 03:36:38;;;;;;;;;;;;;;;15.37;64.97;100380.56;4148978;28;20119;-67
2023/07/03 03:38:40;;;;;;;;;;;;;;;15.40;64.94;100382.88;4166989;28;20589;-67
2023/07/03 03:40:43;;;;;;;;;;;;;;;15.42;65.16;100374.47;4187664;28;20024;-67
2023/07/03 03:42:45;;;;;;;;;;;;;;;15.42;65.47;100380.78;4185886;28;20032;-67
2023/07/03 03:44:49;;;;;;;;;;;;;;;15.42;65.14;100377.19;4185634;28;20513;-68
2023/07/03 03:46:52;;;;;;;;;;;;;;;15.42;65.31;100383.50;4167317;28;20020;-67
2023/07/03 03:48:55;;;;;;;;;;;;;;;15.43;65.51;100382.44;4169236;28;20410;-67
2023/07/03 03:50:57;;;;;;;;;;;;;;;15.43;65.37;100382.44;4185587;28;20039;-66
2023/07/03 03:53:01;;;;;;;;;;;;;;;15.44;65.50;100386.00;4165779;28;20032;-66
2023/07/03 03:55:04;;;;;;;;;;;;;;;15.44;65.41;100383.28;4169989;28;20035;-66
2023/07/03 03:57:06;;;;;;;;;;;;;;;15.45;65.56;100380.34;4185832;28;20027;-66
2023/07/03 03:59:08;;;;;;;;;;;;;;;15.48;65.54;100382.59;4187635;28;20023;-67
2023/07/03 04:01:10;;;;;;;;;;;;;;;15.48;65.50;100377.16;4169513;28;20031;-66
2023/07/03 04:03:12;;;;;;;;;;;;;;;15.50;65.25;100372.34;4187958;28;20426;-66
2023/07/03 04:05:14;;;;;;;;;;;;;;;15.53;65.46;100378.41;4185851;28;20442;-66
2023/07/03 04:07:16;;;;;;;;;;;;;;;15.54;65.38;100383.63;4188478;28;20019;-66
2023/07/03 04:09:19;;;;;;;;;;;;;;;15.55;65.43;100376.28;4188815;28;19928;-66
2023/07/03 04:11:21;;;;;;;;;;;;;;;15.54;65.32;100375.47;4188072;28;20620;-67
2023/07/03 04:13:23;;;;;;;;;;;;;;;15.56;65.43;100376.06;4187743;28;20087;-67
2023/07/03 04:15:25;;;;;;;;;;;;;;;15.58;65.50;100373.97;4188004;28;20023;-66
2023/07/03 04:17:27;;;;;;;;;;;;;;;15.59;65.39;100372.91;4187722;28;20399;-67
2023/07/03 04:19:29;;;;;;;;;;;;;;;15.61;65.41;100376.25;4187335;28;20629;-67
2023/07/03 04:21:31;;;;;;;;;;;;;;;15.62;65.44;100371.66;4187624;28;20007;-66
2023/07/03 04:23:33;;;;;;;;;;;;;;;15.63;65.40;100365.97;4188038;28;20024;-66
2023/07/03 04:25:37;;;;;;;;;;;;;;;15.67;65.30;100369.09;4187326;28;20419;-66
2023/07/03 04:27:39;;;;;;;;;;;;;;;15.68;64.96;100357.97;4188432;28;20354;-67
2023/07/03 04:29:41;;;;;;;;;;;;;;;15.70;65.00;100365.94;4188157;28;19982;-66
2023/07/03 04:31:43;;;;;;;;;;;;;;;15.73;64.85;100370.94;4188400;28;20136;-66
2023/07/03 04:33:45;;;;;;;;;;;;;;;15.76;64.76;100370.50;4188407;28;20012;-66
2023/07/03 04:35:47;;;;;;;;;;;;;;;15.78;64.70;100370.31;4187019;28;20016;-66
2023/07/03 04:37:50;;;;;;;;;;;;;;;15.79;64.58;100366.53;4188363;28;20012;-66
2023/07/03 04:39:52;;;;;;;;;;;;;;;15.80;64.63;100363.59;4186611;28;20047;-66
2023/07/03 04:41:59;;;;;;;;;;;;;;;15.84;64.53;100364.81;4187895;28;20394;-66
2023/07/03 04:44:01;;;;;;;;;;;;;;;15.87;64.34;100376.34;4187942;28;20015;-67
2023/07/03 04:46:04;;;;;;;;;;;;;;;15.87;64.23;100369.00;4187576;28;20459;-66
2023/07/03 04:48:06;;;;;;;;;;;;;;;15.89;64.39;100369.59;4188231;28;20016;-66
2023/07/03 04:50:10;;;;;;;;;;;;;;;15.91;64.57;100367.50;4184437;28;20159;-66
2023/07/03 04:52:13;;;;;;;;;;;;;;;15.94;64.44;100364.34;4186669;28;19963;-67
2023/07/03 04:54:15;;;;;;;;;;;;;;;15.98;64.30;100370.16;4186645;28;20011;-67
2023/07/03 04:56:17;;;;;;;;;;;;;;;15.99;64.64;100369.13;4187574;28;20487;-66
2023/07/03 04:58:21;;;;;;;;;;;;;;;16.00;64.67;100376.22;4187997;28;20024;-66
2023/07/03 05:00:24;;;;;;;;;;;;;;;16.02;64.32;100376.84;4186613;28;20031;-66
2023/07/03 05:02:25;;;;;;;;;;;;;;;16.03;64.43;100367.59;4188056;28;20031;-66
2023/07/03 05:04:28;;;;;;;;;;;;;;;16.05;64.22;100365.50;4187490;28;20019;-66
2023/07/03 05:06:30;;;;;;;;;;;;;;;16.07;64.34;100362.56;4187913;28;20361;-67
2023/07/03 05:08:32;;;;;;;;;;;;;;;16.10;64.36;100360.22;4186040;28;20372;-67
2023/07/03 05:10:34;;;;;;;;;;;;;;;16.14;64.66;100357.88;4183432;28;19982;-66
2023/07/03 05:12:36;;;;;;;;;;;;;;;16.16;64.55;100353.88;4186355;28;20015;-67
2023/07/03 05:14:39;;;;;;;;;;;;;;;16.18;64.43;100357.19;4186576;28;20028;-66
2023/07/03 05:16:41;;;;;;;;;;;;;;;16.20;64.45;100363.25;4187230;28;19960;-66
2023/07/03 05:18:43;;;;;;;;;;;;;;;16.23;64.32;100361.97;4187988;28;20020;-66
2023/07/03 05:20:45;;;;;;;;;;;;;;;16.25;64.38;100359.84;4185850;28;20028;-67
2023/07/03 05:22:47;;;;;;;;;;;;;;;16.31;64.42;100363.59;4187627;28;20020;-67
2023/07/03 05:24:50;;;;;;;;;;;;;;;16.35;64.47;100362.91;4186163;28;20024;-67
2023/07/03 05:26:52;;;;;;;;;;;;;;;16.41;64.23;100363.91;4187129;28;20023;-67
2023/07/03 05:28:54;;;;;;;;;;;;;;;16.44;63.90;100370.78;4187333;28;20019;-67
2023/07/03 05:30:57;;;;;;;;;;;;;;;16.47;63.73;100365.72;4186433;28;19928;-67
2023/07/03 05:32:59;;;;;;;;;;;;;;;16.48;63.80;100367.41;4186737;28;20032;-67
2023/07/03 05:35:02;;;;;;;;;;;;;;;16.52;63.54;100373.22;4185336;28;20064;-66
2023/07/03 05:37:05;;;;;;;;;;;;;;;16.53;63.88;100369.44;4186570;28;20040;-67
2023/07/03 05:39:07;;;;;;;;;;;;;;;16.54;64.01;100368.41;4186231;28;20430;-67
2023/07/03 05:41:10;;;;;;;;;;;;;;;16.58;64.02;100370.44;4185674;28;20015;-67
2023/07/03 05:43:13;;;;;;;;;;;;;;;16.61;64.13;100373.78;4187193;28;20019;-66
2023/07/03 05:45:15;;;;;;;;;;;;;;;16.63;64.03;100364.31;4186921;28;20024;-66
2023/07/03 05:47:18;;;;;;;;;;;;;;;16.68;64.10;100369.09;4187923;28;19971;-67
2023/07/03 05:49:20;;;;;;;;;;;;;;;16.72;64.14;100364.84;4186044;28;20011;-68
2023/07/03 05:51:22;;;;;;;;;;;;;;;16.76;63.96;100371.50;4187080;28;20394;-68
2023/07/03 05:53:24;;;;;;;;;;;;;;;16.79;63.86;100375.69;4186483;28;20024;-68
2023/07/03 05:55:26;;;;;;;;;;;;;;;16.81;63.92;100377.13;4186056;28;20028;-67
2023/07/03 05:57:29;;;;;;;;;;;;;;;16.86;63.93;100376.47;4185985;28;20023;-67
2023/07/03 05:59:30;;;;;;;;;;;;;;;16.92;63.88;100381.84;4186300;28;20411;-68
2023/07/03 06:01:32;;;;;;;;;;;;;;;16.95;63.22;100371.56;4168916;28;20027;-67
2023/07/03 06:03:36;;;;;;;;;;;;;;;16.98;62.93;100369.19;4152049;28;20021;-68
2023/07/03 06:05:38;;;;;;;;;;;;;;;17.03;62.14;100379.41;4186033;28;20854;-68
2023/07/03 06:07:40;;;;;;;;;;;;;;;17.05;61.78;100380.88;4186671;28;20450;-68
2023/07/03 06:09:42;;;;;;;;;;;;;;;17.06;61.68;100368.88;4186642;28;20015;-67
2023/07/03 06:11:44;;;;;;;;;;;;;;;17.14;61.33;100373.19;4168250;28;19960;-68
2023/07/03 06:13:46;;;;;;;;;;;;;;;17.17;60.95;100380.91;4187405;28;20384;-66
2023/07/03 06:15:48;;;;;;;;;;;;;;;17.19;60.77;100369.78;4186503;28;20007;-67
2023/07/03 06:17:50;;;;;;;;;;;;;;;17.22;60.84;100372.03;4185880;28;20020;-68
2023/07/03 06:19:53;;;;;;;;;;;;;;;17.28;60.55;100371.94;4185085;28;20502;-67
2023/07/03 06:21:55;;;;;;;;;;;;;;;17.30;60.48;100379.91;4184674;28;20015;-68
2023/07/03 06:23:57;;;;;;;;;;;;;;;17.31;60.53;100380.75;4181150;28;20008;-68
2023/07/03 06:25:59;;;;;;;;;;;;;;;17.32;60.80;100383.25;4166934;28;19929;-67
2023/07/03 06:28:01;;;;;;;;;;;;;;;17.34;60.97;100385.75;4184741;28;20020;-67
2023/07/03 06:30:03;;;;;;;;;;;;;;;17.38;60.89;100382.34;4179138;28;20027;-67
2023/07/03 06:32:06;;;;;;;;;;;;;;;17.40;60.46;100390.28;4175671;28;20023;-68
2023/07/03 06:34:08;;;;;;;;;;;;;;;17.43;60.29;100387.09;4179048;28;20059;-68
2023/07/03 06:36:14;;;;;;;;;;;;;;;17.48;60.06;100395.41;4185732;28;20341;-68
2023/07/03 06:38:15;;;;;;;;;;;;;;;17.58;58.74;100392.13;4187047;28;20015;-68
2023/07/03 06:40:19;;;;;;;;;;;;;;;17.59;58.84;100391.91;4185767;28;20335;-68
2023/07/03 06:42:21;;;;;;;;;;;;;;;17.61;58.82;100394.41;4186035;28;20020;-68
2023/07/03 06:44:31;;;;;;;;;;;;;;;17.62;58.43;100391.44;4167687;28;20422;-67
2023/07/03 06:46:33;;;;;;;;;;;;;;;17.68;58.27;100394.28;4185547;28;20031;-66
2023/07/03 06:48:35;;;;;;;;;;;;;;;17.69;57.94;100399.53;4185262;28;20023;-68
2023/07/03 06:50:37;;;;;;;;;;;;;;;17.70;57.73;100401.19;4184014;28;20035;-68
2023/07/03 06:52:41;;;;;;;;;;;;;;;17.73;58.26;100394.44;4185882;28;19929;-67
2023/07/03 06:54:43;;;;;;;;;;;;;;;17.75;57.98;100397.78;4184369;28;20015;-68
2023/07/03 06:56:45;;;;;;;;;;;;;;;17.80;57.57;100403.34;4185740;28;20019;-66
2023/07/03 06:58:48;;;;;;;;;;;;;;;17.80;57.49;100404.19;4181636;28;20015;-66
2023/07/03 07:00:50;;;;;;;;;;;;;;;17.83;57.68;100408.34;4182170;28;20015;-67
2023/07/03 07:02:52;;;;;;;;;;;;;;;17.87;57.47;100390.44;4186902;28;20031;-67
2023/07/03 07:04:55;;;;;;;;;;;;;;;17.88;57.36;100392.13;4186888;28;20023;-67
2023/07/03 07:06:57;;;;;;;;;;;;;;;17.91;57.36;100391.66;4187174;28;20039;-69
2023/07/03 07:09:00;;;;;;;;;;;;;;;17.96;57.18;100394.53;4187167;28;20028;-68
2023/07/03 07:11:03;;;;;;;;;;;;;;;17.98;57.33;100394.31;4187391;28;20012;-67
2023/07/03 07:13:05;;;;;;;;;;;;;;;18.00;57.49;100392.97;4187797;28;20434;-68
2023/07/03 07:15:07;;;;;;;;;;;;;;;18.07;57.29;100395.63;4186191;28;20015;-68
2023/07/03 07:17:09;;;;;;;;;;;;;;;18.13;55.91;100391.94;4188220;28;20019;-66
2023/07/03 07:19:11;;;;;;;;;;;;;;;18.13;55.96;100397.38;4187999;28;20044;-67
2023/07/03 07:21:13;;;;;;;;;;;;;;;18.11;55.83;100388.59;4187630;28;20023;-67
2023/07/03 07:23:16;;;;;;;;;;;;;;;18.13;55.66;100389.19;4188040;28;20028;-67
2023/07/03 07:25:19;;;;;;;;;;;;;;;18.13;55.61;100385.63;4187890;28;20008;-67
2023/07/03 07:27:21;;;;;;;;;;;;;;;18.16;55.72;100393.38;4186970;28;20573;-68
2023/07/03 07:29:24;;;;;;;;;;;;;;;18.16;55.62;100391.44;4188241;28;20022;-68
2023/07/03 07:31:28;;;;;;;;;;;;;;;18.19;55.42;100392.91;4188964;28;20526;-67
2023/07/03 07:33:30;;;;;;;;;;;;;;;18.22;55.28;100395.16;4188073;28;19950;-68
2023/07/03 07:35:34;;;;;;;;;;;;;;;18.25;55.50;100402.88;4187135;28;20020;-67
2023/07/03 07:37:36;;;;;;;;;;;;;;;18.24;55.49;100395.75;4185820;28;20015;-66
2023/07/03 07:39:41;;;;;;;;;;;;;;;18.29;55.30;100403.22;4186465;28;20032;-67
2023/07/03 07:41:45;;;;;;;;;;;;;;;18.27;54.90;100395.28;4187961;28;20233;-67
2023/07/03 07:43:47;;;;;;;;;;;;;;;18.27;54.82;100405.38;4189149;28;20028;-67
2023/07/03 07:45:52;;;;;;;;;;;;;;;18.32;54.70;100411.81;4186900;28;20114;-69
2023/07/03 07:47:54;;;;;;;;;;;;;;;18.35;54.09;100403.16;4188606;28;20063;-67
2023/07/03 07:49:58;;;;;;;;;;;;;;;18.28;54.15;100405.16;4187718;28;20007;-67
2023/07/03 07:52:00;;;;;;;;;;;;;;;18.26;54.30;100403.72;4189193;28;20016;-67
2023/07/03 07:54:03;;;;;;;;;;;;;;;18.27;54.34;100408.13;4186723;28;20040;-67
2023/07/03 07:56:06;;;;;;;;;;;;;;;18.29;54.62;100405.97;4170658;28;20036;-67
2023/07/03 07:58:10;;;;;;;;;;;;;;;18.29;54.26;100405.97;4188715;28;20020;-67
2023/07/03 08:00:12;;;;;;;;;;;;;;;18.28;54.40;100407.06;4187846;28;20364;-68
2023/07/03 08:02:14;;;;;;;;;;;;;;;18.27;54.52;100408.94;4188560;28;20023;-67
2023/07/03 08:04:16;;;;;;;;;;;;;;;18.29;54.57;100412.28;4187841;28;20015;-68
2023/07/03 08:06:18;;;;;;;;;;;;;;;18.30;54.61;100411.19;4188432;28;20051;-68
2023/07/03 08:08:20;;;;;;;;;;;;;;;18.30;54.51;100411.19;4187431;28;20027;-68
2023/07/03 08:10:22;;;;;;;;;;;;;;;18.30;54.87;100407.66;4186820;28;20362;-67
2023/07/03 08:12:24;;;;;;;;;;;;;;;18.32;54.89;100417.28;4169399;28;20024;-67
2023/07/03 08:14:28;;;;;;;;;;;;;;;18.41;54.87;100412.28;4187516;28;20012;-67
2023/07/03 08:16:30;;;;;;;;;;;;;;;18.50;54.44;100418.25;4188315;28;19967;-67
2023/07/03 08:18:32;;;;;;;;;;;;;;;18.52;54.52;100410.63;4186764;28;20008;-67
2023/07/03 08:20:34;;;;;;;;;;;;;;;18.55;54.76;100408.22;4187233;28;20661;-67
2023/07/03 08:22:36;;;;;;;;;;;;;;;18.60;54.13;100418.47;4184546;28;20007;-70
2023/07/03 08:24:38;;;;;;;;;;;;;;;18.58;54.34;100412.41;4179590;28;20031;-66
2023/07/03 08:26:41;;;;;;;;;;;;;;;18.57;54.47;100413.47;4183094;28;20762;-67
2023/07/03 08:28:43;;;;;;;;;;;;;;;18.57;54.10;100415.38;4186454;28;20009;-67
2023/07/03 08:30:46;;;;;;;;;;;;;;;18.56;53.98;100420.03;4184944;28;20031;-66
2023/07/03 08:32:48;;;;;;;;;;;;;;;18.58;54.37;100417.06;4185824;28;20028;-67
2023/07/03 08:34:50;;;;;;;;;;;;;;;18.57;53.98;100409.91;4184238;28;20643;-69
2023/07/03 08:36:53;;;;;;;;;;;;;;;18.60;53.96;100425.84;4184884;28;20023;-67
2023/07/03 08:38:55;;;;;;;;;;;;;;;18.63;54.37;100411.69;4184103;28;20629;-66
2023/07/03 08:40:57;;;;;;;;;;;;;;;18.64;54.17;100421.56;4180259;28;20310;-68
2023/07/03 08:43:03;;;;;;;;;;;;;;;18.67;54.02;100410.97;4184920;28;20015;-71
2023/07/03 08:45:05;;;;;;;;;;;;;;;18.70;53.52;100409.69;4188074;28;20023;-66
2023/07/03 08:47:10;;;;;;;;;;;;;;;18.68;53.53;100412.66;4184165;28;20019;-68
2023/07/03 08:49:13;;;;;;;;;;;;;;;18.69;53.68;100413.47;4184531;28;20012;-69
2023/07/03 08:51:18;;;;;;;;;;;;;;;18.64;53.62;100405.97;4187770;28;20670;-69
2023/07/03 08:53:21;;;;;;;;;;;;;;;18.63;53.76;100411.69;4167952;28;20036;-69
2023/07/03 08:55:23;;;;;;;;;;;;;;;18.64;52.78;100413.38;4184150;28;20578;-68
2023/07/03 08:57:25;;;;;;;;;;;;;;;18.59;52.79;100416.81;4185768;28;20035;-68
2023/07/03 08:59:27;;;;;;;;;;;;;;;18.61;53.17;100422.88;4165884;28;19925;-70
2023/07/03 09:01:31;;;;;;;;;;;;;;;18.64;52.64;100427.03;4183229;28;20035;-69
2023/07/03 09:03:36;;;;;;;;;;;;;;;18.62;52.98;100423.69;4183488;28;20023;-67
2023/07/03 09:05:42;;;;;;;;;;;;;;;18.56;52.58;100414.56;4183538;28;20020;-69
2023/07/03 09:07:47;;;;;;;;;;;;;;;18.54;53.11;100420.25;4183078;28;20220;-67
2023/07/03 09:09:50;;;;;;;;;;;;;;;18.53;53.22;100417.78;4185278;28;20015;-68
2023/07/03 09:11:53;;;;;;;;;;;;;;;18.54;53.11;100419.41;4185731;28;20043;-66
2023/07/03 09:13:55;;;;;;;;;;;;;;;18.60;52.92;100415.72;4185723;28;20024;-66
2023/07/03 09:15:59;;;;;;;;;;;;;;;18.65;52.49;100420.47;4185698;28;20413;-69
2023/07/03 09:18:02;;;;;;;;;;;;;;;18.71;52.71;100419.53;4185576;28;20362;-66
2023/07/03 09:20:09;;;;;;;;;;;;;;;18.78;52.52;100444.03;4185058;28;20031;-68
2023/07/03 09:22:13;;;;;;;;;;;;;;;18.81;52.22;100429.88;4186354;28;20019;-67
2023/07/03 09:24:17;;;;;;;;;;;;;;;18.82;51.90;100428.81;4184896;28;20012;-66
2023/07/03 09:26:21;;;;;;;;;;;;;;;18.85;51.27;100425.63;4185574;28;20011;-67
2023/07/03 09:28:23;;;;;;;;;;;;;;;18.87;51.27;100426.19;4185547;28;20008;-68
2023/07/03 09:30:25;;;;;;;;;;;;;;;18.90;51.61;100437.53;4184754;28;20030;-67
2023/07/03 09:32:27;;;;;;;;;;;;;;;18.96;51.13;100445.84;4185888;28;20028;-66
2023/07/03 09:34:30;;;;;;;;;;;;;;;19.01;50.27;100473.31;4179551;28;20027;-67
2023/07/03 09:36:37;;;;;;;;;;;;;;;19.03;50.30;100433.69;4185746;28;20405;-66
2023/07/03 09:38:39;;;;;;;;;;;;;;;19.05;49.56;100436.19;4186025;28;20481;-67
2023/07/03 09:40:42;;;;;;;;;;;;;;;19.04;50.25;100427.16;4185190;28;20475;-66
2023/07/03 09:42:44;;;;;;;;;;;;;;;19.07;50.21;100428.56;4184661;28;20392;-66
2023/07/03 09:44:48;;;;;;;;;;;;;;;19.16;49.62;100431.75;4184297;28;20510;-67
2023/07/03 09:46:50;;;;;;;;;;;;;;;19.18;49.47;100432.34;4184677;28;20027;-67
2023/07/03 09:48:52;;;;;;;;;;;;;;;19.18;49.44;100424.13;4184871;28;20019;-66
2023/07/03 09:50:54;;;;;;;;;;;;;;;19.17;49.59;100438.88;4184991;28;20007;-67
2023/07/03 09:53:02;;;;;;;;;;;;;;;19.18;49.27;100440.56;4185974;28;20031;-68
2023/07/03 09:55:05;;;;;;;;;;;;;;;19.18;48.77;100443.28;4184552;28;20376;-67
2023/07/03 09:57:07;;;;;;;;;;;;;;;19.18;48.83;100446.84;4185436;28;19932;-67
2023/07/03 09:59:09;;;;;;;;;;;;;;;19.24;48.13;100456.03;4184749;28;20012;-70
2023/07/03 10:01:11;;;;;;;;;;;;;;;19.26;47.98;100438.28;4185899;28;20015;-67
2023/07/03 10:03:13;;;;;;;;;;;;;;;19.29;48.60;100439.69;4186212;28;20412;-67
2023/07/03 10:05:15;;;;;;;;;;;;;;;19.34;47.40;100450.78;4184116;28;20028;-67
2023/07/03 10:07:18;;;;;;;;;;;;;;;19.37;46.91;100466.72;4185578;28;20663;-67
2023/07/03 10:09:24;;;;;;;;;;;;;;;19.39;47.37;100447.31;4184299;28;20032;-69
2023/07/03 10:11:29;;;;;;;;;;;;;;;19.39;47.42;100445.38;4186017;28;20461;-68
2023/07/03 10:13:31;;;;;;;;;;;;;;;19.41;47.62;100451.44;4185203;28;20027;-67
2023/07/03 10:15:34;;;;;;;;;;;;;;;19.45;47.28;100432.63;4184750;28;20027;-68
2023/07/03 10:17:37;;;;;;;;;;;;;;;19.47;47.05;100435.97;4185823;28;19924;-66
2023/07/03 10:19:40;;;;;;;;;;;;;;;19.49;47.29;100449.41;4184239;28;20015;-69
2023/07/03 10:21:42;;;;;;;;;;;;;;;19.52;47.00;100451.66;4185623;28;20028;-67
2023/07/03 10:23:44;;;;;;;;;;;;;;;19.54;45.85;100454.97;4185493;28;20023;-70
2023/07/03 10:25:49;;;;;;;;;;;;;;;19.51;46.65;100453.53;4184772;28;20028;-67
2023/07/03 10:27:53;;;;;;;;;;;;;;;19.51;46.84;100442.59;4185415;28;20026;-67
2023/07/03 10:29:55;;;;;;;;;;;;;;;19.52;46.01;100451.66;4184290;28;20449;-66